Time;durP1;ratioP1;P1;durP2;ratioP2;P2;SDS_P1;SDS_P2;PMS_P1;PMS_P2;Temp;Humidity;BMP_temperature;BMP_pressure;BME280_temperature;BME280_humidity;BME280_pressure;Samples;Min_cycle;Max_cycle;Signal;HPM_P1;HPM_P2
2022/12/19 00:02:04;;;;;;;55.45;25.23;;;;;;;;;;5040772;28;20025;-80
2022/12/19 00:04:30;;;;;;;64.00;26.00;;;;;;;;;;5040791;28;20025;-81
2022/12/19 00:07:00;;;;;;;57.13;25.25;;;;;;;;;;5038919;28;20032;-81
2022/12/19 00:09:26;;;;;;;64.63;25.20;;;;;;;;;;5040418;28;20449;-80
2022/12/19 00:11:52;;;;;;;56.42;24.38;;;;;;;;;;5040449;28;20033;-80
2022/12/19 00:14:18;;;;;;;62.17;26.92;;;;;;;;;;5041414;28;20482;-80
2022/12/19 00:16:44;;;;;;;63.90;26.80;;;;;;;;;;5042195;28;20029;-80
2022/12/19 00:19:11;;;;;;;59.83;26.40;;;;;;;;;;5041440;28;20030;-80
2022/12/19 00:21:37;;;;;;;60.53;25.95;;;;;;;;;;5040798;28;20032;-79
2022/12/19 00:24:04;;;;;;;57.97;25.15;;;;;;;;;;5041478;28;20032;-80
2022/12/19 00:26:31;;;;;;;61.50;26.15;;;;;;;;;;5063373;22;20540;-78
2022/12/19 00:29:03;;;;;;;59.72;25.77;;;;;;;;;;5019936;28;20125;-79
2022/12/19 00:31:32;;;;;;;69.85;27.15;;;;;;;;;;5021288;28;20033;-79
2022/12/19 00:33:58;;;;;;;60.03;26.80;;;;;;;;;;5021317;28;20186;-78
2022/12/19 00:36:25;;;;;;;62.35;27.00;;;;;;;;;;5020152;28;20041;-78
2022/12/19 00:38:52;;;;;;;66.25;27.10;;;;;;;;;;5002217;28;20023;-80
2022/12/19 00:41:19;;;;;;;65.07;26.83;;;;;;;;;;5001468;28;20053;-77
2022/12/19 00:43:45;;;;;;;63.00;27.02;;;;;;;;;;5003553;28;20026;-80
2022/12/19 00:46:14;;;;;;;58.97;25.92;;;;;;;;;;5013831;28;20041;-79
2022/12/19 00:48:41;;;;;;;69.03;27.92;;;;;;;;;;5015576;28;20015;-77
2022/12/19 00:51:12;;;;;;;66.25;27.05;;;;;;;;;;5019587;28;20019;-77
2022/12/19 00:53:38;;;;;;;62.10;26.30;;;;;;;;;;5019753;28;20025;-78
2022/12/19 00:56:05;;;;;;;65.25;26.58;;;;;;;;;;5020636;28;20046;-76
2022/12/19 00:58:31;;;;;;;67.13;26.38;;;;;;;;;;5021146;28;20030;-76
2022/12/19 01:00:57;;;;;;;61.83;26.00;;;;;;;;;;5019125;28;20082;-76
2022/12/19 01:03:24;;;;;;;57.70;26.55;;;;;;;;;;5025146;28;20030;-75
2022/12/19 01:05:50;;;;;;;63.42;26.35;;;;;;;;;;5005610;28;20121;-78
2022/12/19 01:08:19;;;;;;;67.47;26.13;;;;;;;;;;5003140;28;20034;-79
2022/12/19 01:10:46;;;;;;;54.10;25.63;;;;;;;;;;5001457;28;20026;-77
2022/12/19 01:13:12;;;;;;;63.78;26.73;;;;;;;;;;5001525;28;20093;-79
2022/12/19 01:15:40;;;;;;;58.90;26.10;;;;;;;;;;5005876;28;20403;-78
2022/12/19 01:18:08;;;;;;;65.25;27.52;;;;;;;;;;5000765;28;20018;-78
2022/12/19 01:20:35;;;;;;;61.63;26.98;;;;;;;;;;5002670;28;20026;-79
2022/12/19 01:23:01;;;;;;;60.72;26.38;;;;;;;;;;5007964;28;20026;-76
2022/12/19 01:25:27;;;;;;;65.78;26.08;;;;;;;;;;5008206;28;20038;-78
2022/12/19 01:27:54;;;;;;;62.63;26.65;;;;;;;;;;5007269;28;20499;-79
2022/12/19 01:30:20;;;;;;;57.50;25.02;;;;;;;;;;5014592;28;20018;-75
2022/12/19 01:32:46;;;;;;;65.10;26.63;;;;;;;;;;5017195;28;20085;-75
2022/12/19 01:35:12;;;;;;;63.50;25.25;;;;;;;;;;5015157;28;20036;-77
2022/12/19 01:37:37;;;;;;;62.63;25.60;;;;;;;;;;5014046;28;20042;-78
2022/12/19 01:40:04;;;;;;;67.20;25.70;;;;;;;;;;5010560;28;20019;-77
2022/12/19 01:42:34;;;;;;;57.45;23.05;;;;;;;;;;5010306;28;20018;-77
2022/12/19 01:45:09;;;;;;;58.63;25.25;;;;;;;;;;5011251;28;20086;-76
2022/12/19 01:47:46;;;;;;;58.10;24.55;;;;;;;;;;5011662;28;20038;-78
2022/12/19 01:50:13;;;;;;;59.58;25.20;;;;;;;;;;5012483;28;20499;-77
2022/12/19 01:52:40;;;;;;;61.70;25.80;;;;;;;;;;5013675;28;20037;-77
2022/12/19 01:55:06;;;;;;;61.85;25.95;;;;;;;;;;5016974;28;20018;-75
2022/12/19 01:57:32;;;;;;;58.92;24.70;;;;;;;;;;5016615;28;20041;-75
2022/12/19 01:59:59;;;;;;;59.10;24.83;;;;;;;;;;5018250;28;20049;-76
2022/12/19 02:02:33;;;;;;;58.33;25.27;;;;;;;;;;5018018;28;20014;-75
2022/12/19 02:05:00;;;;;;;56.58;24.17;;;;;;;;;;5017947;28;20074;-74
2022/12/19 02:07:27;;;;;;;58.25;24.60;;;;;;;;;;5017874;28;20027;-75
2022/12/19 02:09:56;;;;;;;58.63;25.15;;;;;;;;;;5017611;28;20026;-77
2022/12/19 02:12:23;;;;;;;60.42;24.60;;;;;;;;;;5013342;28;20061;-79
2022/12/19 02:14:50;;;;;;;56.83;24.88;;;;;;;;;;5003893;28;20026;-78
2022/12/19 02:17:26;;;;;;;57.40;24.55;;;;;;;;;;5001166;28;20045;-79
2022/12/19 02:19:55;;;;;;;60.38;25.90;;;;;;;;;;5003744;28;20069;-78
2022/12/19 02:22:32;;;;;;;58.72;24.75;;;;;;;;;;5002983;28;20033;-78
2022/12/19 02:25:25;;;;;;;58.05;24.40;;;;;;;;;;5001811;28;20345;-78
2022/12/19 02:28:10;;;;;;;64.25;24.50;;;;;;;;;;5004650;28;20038;-77
2022/12/19 02:30:59;;;;;;;63.97;25.80;;;;;;;;;;5003317;28;20037;-78
2022/12/19 02:33:24;;;;;;;55.92;24.48;;;;;;;;;;5005317;28;20085;-78
2022/12/19 02:35:52;;;;;;;60.10;25.17;;;;;;;;;;5007237;28;20260;-77
2022/12/19 02:38:36;;;;;;;59.58;24.80;;;;;;;;;;5009830;28;20277;-78
2022/12/19 02:41:02;;;;;;;56.25;24.83;;;;;;;;;;5012234;28;20030;-76
2022/12/19 02:43:30;;;;;;;56.30;24.27;;;;;;;;;;5009049;28;20566;-79
2022/12/19 02:45:57;;;;;;;62.20;25.45;;;;;;;;;;5009235;28;20053;-77
2022/12/19 02:48:23;;;;;;;58.45;24.98;;;;;;;;;;5009066;28;20026;-79
2022/12/19 02:50:49;;;;;;;54.55;24.10;;;;;;;;;;5011614;28;20054;-77
2022/12/19 02:53:16;;;;;;;54.63;23.73;;;;;;;;;;5011369;28;20037;-77
2022/12/19 02:55:46;;;;;;;57.88;23.73;;;;;;;;;;5008810;28;20025;-76
2022/12/19 02:58:32;;;;;;;56.42;24.13;;;;;;;;;;5003706;28;20023;-74
2022/12/19 03:01:12;;;;;;;60.72;25.63;;;;;;;;;;5012131;28;20041;-74
2022/12/19 03:03:57;;;;;;;58.83;25.23;;;;;;;;;;5012725;28;20018;-75
2022/12/19 03:06:23;;;;;;;59.30;25.55;;;;;;;;;;5015962;28;20029;-74
2022/12/19 03:08:57;;;;;;;58.17;24.60;;;;;;;;;;5016471;28;20034;-74
2022/12/19 03:11:23;;;;;;;53.67;23.90;;;;;;;;;;5014967;28;20026;-75
2022/12/19 03:13:53;;;;;;;56.97;24.35;;;;;;;;;;5014295;28;20086;-75
2022/12/19 03:16:19;;;;;;;57.40;23.67;;;;;;;;;;4998789;28;20039;-76
2022/12/19 03:18:45;;;;;;;53.72;24.23;;;;;;;;;;4995281;28;20026;-77
2022/12/19 03:21:24;;;;;;;64.00;24.77;;;;;;;;;;5004234;28;20076;-79
2022/12/19 03:23:52;;;;;;;64.97;25.88;;;;;;;;;;5003389;28;20439;-78
2022/12/19 03:26:20;;;;;;;57.78;24.73;;;;;;;;;;5005494;28;20049;-76
2022/12/19 03:28:55;;;;;;;63.40;25.80;;;;;;;;;;5004017;28;20034;-80
2022/12/19 03:31:23;;;;;;;62.28;25.63;;;;;;;;;;5001249;28;20033;-76
2022/12/19 03:33:51;;;;;;;59.20;24.88;;;;;;;;;;4999461;28;20034;-78
2022/12/19 03:36:20;;;;;;;60.97;26.48;;;;;;;;;;4997852;28;20033;-76
2022/12/19 03:38:47;;;;;;;57.85;24.95;;;;;;;;;;4997183;28;20407;-77
2022/12/19 03:41:14;;;;;;;55.47;25.58;;;;;;;;;;4999747;28;20026;-76
2022/12/19 03:43:41;;;;;;;62.20;25.80;;;;;;;;;;5001297;28;20023;-76
2022/12/19 03:46:20;;;;;;;58.70;25.17;;;;;;;;;;4997139;28;20390;-76
2022/12/19 03:48:47;;;;;;;57.22;24.77;;;;;;;;;;4999705;28;20491;-77
2022/12/19 03:51:17;;;;;;;61.17;25.40;;;;;;;;;;4999311;28;20451;-77
2022/12/19 03:54:01;;;;;;;55.97;24.35;;;;;;;;;;4997903;28;20401;-76
2022/12/19 03:56:47;;;;;;;64.07;26.25;;;;;;;;;;4994641;28;20030;-77
2022/12/19 03:59:31;;;;;;;57.70;25.55;;;;;;;;;;4993956;28;20038;-77
2022/12/19 04:01:58;;;;;;;41.80;18.73;;;;;;;;;;4995161;28;20026;-77
2022/12/19 04:04:25;;;;;;;57.97;24.60;;;;;;;;;;4994892;28;20026;-78
2022/12/19 04:06:51;;;;;;;58.25;26.02;;;;;;;;;;4993565;28;20026;-78
2022/12/19 04:09:18;;;;;;;50.97;22.98;;;;;;;;;;4995445;28;20368;-78
2022/12/19 04:11:46;;;;;;;57.15;25.90;;;;;;;;;;4995664;28;20030;-74
2022/12/19 04:14:18;;;;;;;52.30;23.92;;;;;;;;;;4994894;28;20032;-74
2022/12/19 04:16:47;;;;;;;49.33;23.77;;;;;;;;;;4997985;28;20395;-77
2022/12/19 04:19:30;;;;;;;57.95;25.20;;;;;;;;;;5000639;28;20026;-78
2022/12/19 04:22:01;;;;;;;58.42;25.42;;;;;;;;;;5017201;28;20058;-77
2022/12/19 04:24:30;;;;;;;60.90;26.13;;;;;;;;;;5017040;28;20034;-78
2022/12/19 04:26:57;;;;;;;59.55;25.80;;;;;;;;;;5007972;28;20037;-77
2022/12/19 04:29:24;;;;;;;62.45;26.10;;;;;;;;;;5000841;28;20037;-78
2022/12/19 04:31:50;;;;;;;58.65;26.75;;;;;;;;;;5000312;28;20022;-77
2022/12/19 04:34:19;;;;;;;57.90;25.92;;;;;;;;;;4997891;28;20029;-74
2022/12/19 04:36:44;;;;;;;56.97;25.58;;;;;;;;;;4996354;28;20038;-76
2022/12/19 04:39:10;;;;;;;58.13;25.45;;;;;;;;;;5000959;28;20054;-77
2022/12/19 04:41:36;;;;;;;60.42;26.08;;;;;;;;;;5001367;28;20025;-77
2022/12/19 04:44:02;;;;;;;57.25;25.35;;;;;;;;;;5002310;28;20093;-78
2022/12/19 04:46:28;;;;;;;55.50;23.88;;;;;;;;;;5001964;28;20047;-75
2022/12/19 04:48:54;;;;;;;56.50;25.88;;;;;;;;;;5003060;28;20089;-76
2022/12/19 04:51:20;;;;;;;53.88;24.80;;;;;;;;;;5000291;28;20169;-76
2022/12/19 04:53:46;;;;;;;55.00;25.38;;;;;;;;;;4993163;28;20037;-74
2022/12/19 04:56:12;;;;;;;55.47;26.42;;;;;;;;;;4997009;28;20096;-75
2022/12/19 04:58:38;;;;;;;54.78;25.80;;;;;;;;;;4994711;28;20368;-77
2022/12/19 05:01:05;;;;;;;57.10;26.15;;;;;;;;;;4993530;28;20455;-76
2022/12/19 05:03:31;;;;;;;60.40;26.73;;;;;;;;;;4995826;28;20502;-75
2022/12/19 05:06:08;;;;;;;55.80;24.67;;;;;;;;;;4993977;28;20057;-75
2022/12/19 05:08:34;;;;;;;56.35;23.73;;;;;;;;;;4990242;28;20114;-76
2022/12/19 05:11:01;;;;;;;51.90;24.92;;;;;;;;;;4989118;28;20153;-76
2022/12/19 05:13:27;;;;;;;56.65;23.85;;;;;;;;;;5006352;28;20442;-75
2022/12/19 05:16:00;;;;;;;63.63;24.90;;;;;;;;;;5006907;28;20040;-77
2022/12/19 05:18:27;;;;;;;56.83;24.55;;;;;;;;;;5004602;28;20101;-77
2022/12/19 05:20:53;;;;;;;58.58;24.73;;;;;;;;;;5004469;28;20023;-76
2022/12/19 05:23:19;;;;;;;60.85;26.40;;;;;;;;;;5003573;28;20056;-74
2022/12/19 05:25:45;;;;;;;62.42;24.92;;;;;;;;;;5004195;28;20022;-78
2022/12/19 05:28:11;;;;;;;58.70;25.52;;;;;;;;;;5006629;28;20045;-76
2022/12/19 05:30:37;;;;;;;53.78;24.27;;;;;;;;;;5006518;28;20352;-77
2022/12/19 05:33:03;;;;;;;60.88;25.77;;;;;;;;;;5003037;28;20053;-78
2022/12/19 05:35:29;;;;;;;55.22;24.77;;;;;;;;;;5005451;28;20030;-78
2022/12/19 05:37:55;;;;;;;57.80;25.73;;;;;;;;;;5009720;28;20114;-76
2022/12/19 05:40:21;;;;;;;56.10;26.15;;;;;;;;;;5013676;28;20014;-77
2022/12/19 05:42:47;;;;;;;56.65;25.55;;;;;;;;;;5001859;28;20033;-77
2022/12/19 05:45:12;;;;;;;58.90;25.60;;;;;;;;;;5000572;28;20403;-77
2022/12/19 05:47:38;;;;;;;57.83;25.92;;;;;;;;;;4997119;28;20391;-76
2022/12/19 05:50:04;;;;;;;61.83;26.33;;;;;;;;;;5001166;28;20587;-79
2022/12/19 05:52:31;;;;;;;57.88;26.40;;;;;;;;;;4997386;28;20026;-77
2022/12/19 05:54:57;;;;;;;53.47;25.35;;;;;;;;;;4997484;28;20038;-76
2022/12/19 05:57:23;;;;;;;57.17;25.25;;;;;;;;;;4997671;28;20030;-76
2022/12/19 05:59:49;;;;;;;50.50;24.40;;;;;;;;;;4998922;28;20069;-78
2022/12/19 06:02:15;;;;;;;54.63;25.60;;;;;;;;;;4998454;28;20081;-76
2022/12/19 06:04:41;;;;;;;52.90;24.75;;;;;;;;;;4998479;28;20022;-76
2022/12/19 06:07:07;;;;;;;54.40;25.92;;;;;;;;;;4998257;28;20029;-76
2022/12/19 06:09:33;;;;;;;58.08;25.40;;;;;;;;;;4999185;28;20117;-77
2022/12/19 06:11:58;;;;;;;57.72;26.08;;;;;;;;;;4999353;28;20039;-78
2022/12/19 06:14:24;;;;;;;52.50;24.65;;;;;;;;;;5000454;28;20029;-76
2022/12/19 06:16:50;;;;;;;58.63;24.77;;;;;;;;;;5000809;28;20125;-76
2022/12/19 06:19:16;;;;;;;61.38;25.30;;;;;;;;;;5004967;28;20385;-78
2022/12/19 06:21:43;;;;;;;53.08;24.27;;;;;;;;;;5002890;28;20125;-75
2022/12/19 06:24:09;;;;;;;60.70;24.75;;;;;;;;;;5000829;28;20124;-77
2022/12/19 06:26:35;;;;;;;58.42;26.23;;;;;;;;;;5001049;28;20056;-76
2022/12/19 06:29:01;;;;;;;50.17;24.75;;;;;;;;;;5012379;28;20045;-75
2022/12/19 06:31:28;;;;;;;56.05;24.45;;;;;;;;;;4992284;28;20340;-76
2022/12/19 06:33:55;;;;;;;54.20;24.70;;;;;;;;;;4993007;28;20066;-77
2022/12/19 06:36:28;;;;;;;51.20;24.42;;;;;;;;;;4994183;28;20064;-77
2022/12/19 06:38:56;;;;;;;51.58;23.45;;;;;;;;;;4997609;28;20022;-76
2022/12/19 06:44:07;;;;;;;;;;;;;;;;;;4998493;28;20041;-76
2022/12/19 06:46:33;;;;;;;50.85;23.55;;;;;;;;;;4988626;28;19909;-77
2022/12/19 06:48:59;;;;;;;54.17;24.08;;;;;;;;;;4994703;28;20407;-77
2022/12/19 06:51:25;;;;;;;54.15;24.80;;;;;;;;;;4993389;28;20096;-78
2022/12/19 06:53:52;;;;;;;50.65;22.98;;;;;;;;;;4984721;28;20562;-77
2022/12/19 06:56:19;;;;;;;60.53;24.42;;;;;;;;;;4992696;28;20038;-77
2022/12/19 06:58:44;;;;;;;55.42;24.65;;;;;;;;;;5003541;28;20026;-76
2022/12/19 07:01:17;;;;;;;51.67;24.13;;;;;;;;;;4993096;28;20029;-75
2022/12/19 07:03:43;;;;;;;51.13;23.52;;;;;;;;;;4995403;28;20033;-76
2022/12/19 07:06:10;;;;;;;52.85;24.35;;;;;;;;;;4991362;28;20448;-75
2022/12/19 07:08:36;;;;;;;53.80;24.70;;;;;;;;;;5003398;28;20061;-76
2022/12/19 07:11:02;;;;;;;51.80;24.42;;;;;;;;;;4999817;28;20035;-76
2022/12/19 07:13:28;;;;;;;61.38;24.83;;;;;;;;;;4987190;28;20034;-76
2022/12/19 07:15:56;;;;;;;51.75;24.17;;;;;;;;;;4987297;28;20472;-78
2022/12/19 07:18:22;;;;;;;51.30;23.65;;;;;;;;;;4992651;28;20035;-77
2022/12/19 07:20:48;;;;;;;49.65;23.40;;;;;;;;;;4995833;28;20037;-77
2022/12/19 07:23:15;;;;;;;47.75;23.75;;;;;;;;;;4996705;28;20026;-76
2022/12/19 07:25:41;;;;;;;54.67;24.73;;;;;;;;;;4992181;28;20409;-77
2022/12/19 07:28:08;;;;;;;57.30;25.02;;;;;;;;;;4993152;28;20048;-77
2022/12/19 07:30:34;;;;;;;48.67;23.02;;;;;;;;;;4994467;28;20037;-77
2022/12/19 07:33:00;;;;;;;56.45;24.35;;;;;;;;;;4995188;28;20089;-76
2022/12/19 07:35:26;;;;;;;52.75;22.38;;;;;;;;;;4995740;28;20031;-76
2022/12/19 07:37:52;;;;;;;50.15;24.13;;;;;;;;;;4998340;28;20034;-76
2022/12/19 07:40:18;;;;;;;52.58;24.65;;;;;;;;;;4997029;28;20033;-76
2022/12/19 07:42:44;;;;;;;55.55;22.88;;;;;;;;;;4997827;28;20026;-77
2022/12/19 07:45:11;;;;;;;51.28;23.08;;;;;;;;;;5001921;28;20033;-76
2022/12/19 07:47:37;;;;;;;57.97;23.20;;;;;;;;;;5002414;28;20026;-75
2022/12/19 07:50:03;;;;;;;52.00;23.55;;;;;;;;;;4994969;28;20026;-80
2022/12/19 07:52:29;;;;;;;51.55;22.77;;;;;;;;;;4997779;28;20034;-80
2022/12/19 07:54:55;;;;;;;48.78;22.95;;;;;;;;;;4995338;28;20031;-77
2022/12/19 07:57:21;;;;;;;55.92;26.23;;;;;;;;;;4996503;28;20026;-77
2022/12/19 07:59:47;;;;;;;56.17;25.27;;;;;;;;;;4994747;28;20033;-76
2022/12/19 08:02:13;;;;;;;55.95;24.70;;;;;;;;;;4994708;28;20049;-76
2022/12/19 08:04:39;;;;;;;54.58;24.92;;;;;;;;;;4995089;28;20125;-78
2022/12/19 08:07:05;;;;;;;51.80;24.55;;;;;;;;;;5000521;28;20026;-76
2022/12/19 08:09:31;;;;;;;51.30;25.25;;;;;;;;;;5001413;28;20116;-77
2022/12/19 08:11:58;;;;;;;53.40;24.95;;;;;;;;;;5017191;28;20084;-76
2022/12/19 08:14:24;;;;;;;60.00;26.33;;;;;;;;;;5017047;28;20033;-75
2022/12/19 08:16:50;;;;;;;53.20;24.90;;;;;;;;;;5014945;28;20064;-77
2022/12/19 08:19:16;;;;;;;52.25;25.10;;;;;;;;;;5014753;28;20018;-76
2022/12/19 08:21:42;;;;;;;56.78;26.08;;;;;;;;;;5015810;28;20026;-77
2022/12/19 08:24:08;;;;;;;56.70;26.40;;;;;;;;;;5015480;28;20053;-76
2022/12/19 08:26:34;;;;;;;50.88;24.40;;;;;;;;;;5020794;28;20037;-78
2022/12/19 08:29:00;;;;;;;63.72;25.85;;;;;;;;;;5018123;28;20029;-76
2022/12/19 08:31:26;;;;;;;88.38;41.05;;;;;;;;;;5025376;28;20054;-78
2022/12/19 08:33:53;;;;;;;78.28;30.95;;;;;;;;;;5020874;28;20034;-77
2022/12/19 08:36:20;;;;;;;58.75;26.23;;;;;;;;;;5022892;28;20093;-76
2022/12/19 08:38:46;;;;;;;55.42;26.23;;;;;;;;;;5015821;28;20413;-77
2022/12/19 08:41:12;;;;;;;63.50;27.17;;;;;;;;;;5013160;28;20022;-76
2022/12/19 08:43:38;;;;;;;55.63;26.20;;;;;;;;;;5014417;28;20490;-77
2022/12/19 08:46:05;;;;;;;64.78;26.40;;;;;;;;;;5014860;28;20479;-76
2022/12/19 08:48:31;;;;;;;62.88;27.52;;;;;;;;;;5014175;28;20471;-78
2022/12/19 08:50:58;;;;;;;55.65;26.10;;;;;;;;;;5015465;28;20026;-75
2022/12/19 08:53:24;;;;;;;61.75;26.67;;;;;;;;;;5012868;28;20032;-77
2022/12/19 08:55:57;;;;;;;61.47;25.63;;;;;;;;;;5013428;28;20026;-77
2022/12/19 08:58:24;;;;;;;62.83;26.65;;;;;;;;;;5021100;28;20030;-77
2022/12/19 09:00:52;;;;;;;67.28;28.30;;;;;;;;;;5032531;28;20014;-80
2022/12/19 09:03:18;;;;;;;63.47;28.27;;;;;;;;;;5030148;28;20065;-77
2022/12/19 09:05:44;;;;;;;61.38;26.95;;;;;;;;;;5032972;28;20022;-77
2022/12/19 09:08:10;;;;;;;66.05;30.25;;;;;;;;;;5035529;28;20041;-77
2022/12/19 09:10:36;;;;;;;61.90;27.58;;;;;;;;;;5033585;28;20448;-77
2022/12/19 09:13:03;;;;;;;67.10;29.13;;;;;;;;;;5028272;28;20036;-76
2022/12/19 09:15:29;;;;;;;66.53;28.85;;;;;;;;;;5023218;28;20030;-76
2022/12/19 09:17:55;;;;;;;60.97;26.75;;;;;;;;;;5025033;28;20080;-76
2022/12/19 09:20:21;;;;;;;62.85;26.60;;;;;;;;;;5021332;28;20037;-76
2022/12/19 09:22:47;;;;;;;74.28;29.83;;;;;;;;;;5021675;28;20026;-77
2022/12/19 09:25:13;;;;;;;66.68;28.30;;;;;;;;;;5028407;28;20026;-76
2022/12/19 09:27:39;;;;;;;70.10;29.50;;;;;;;;;;5019891;28;20037;-77
2022/12/19 09:30:05;;;;;;;69.63;32.40;;;;;;;;;;5021844;28;20462;-77
2022/12/19 09:32:32;;;;;;;60.80;26.85;;;;;;;;;;5022327;28;20117;-77
2022/12/19 09:34:57;;;;;;;60.35;27.73;;;;;;;;;;5019008;28;20101;-76
2022/12/19 09:37:23;;;;;;;63.17;27.77;;;;;;;;;;5018365;28;20026;-77
2022/12/19 09:39:49;;;;;;;60.10;27.50;;;;;;;;;;5019763;28;20029;-76
2022/12/19 09:42:28;;;;;;;57.95;27.38;;;;;;;;;;5020278;28;20033;-77
2022/12/19 09:45:13;;;;;;;56.28;26.60;;;;;;;;;;5018764;28;20018;-76
2022/12/19 09:47:39;;;;;;;;;;;;;;;;;;5019529;28;20034;-75
2022/12/19 09:50:12;;;;;;;62.03;27.25;;;;;;;;;;5025128;28;20445;-75
2022/12/19 09:52:41;;;;;;;55.75;26.92;;;;;;;;;;5020410;28;20026;-77
2022/12/19 09:55:19;;;;;;;62.25;27.67;;;;;;;;;;5017625;28;20498;-77
2022/12/19 09:57:57;;;;;;;53.63;26.65;;;;;;;;;;5018395;28;20022;-72
2022/12/19 10:00:23;;;;;;;61.95;29.52;;;;;;;;;;5016872;28;20033;-73
2022/12/19 10:02:58;;;;;;;51.38;26.17;;;;;;;;;;5017245;28;20030;-74
2022/12/19 10:05:27;;;;;;;59.45;26.88;;;;;;;;;;5020833;28;20080;-77
2022/12/19 10:07:53;;;;;;;56.72;27.23;;;;;;;;;;5018762;28;20041;-77
2022/12/19 10:10:40;;;;;;;57.03;26.85;;;;;;;;;;5021181;28;20057;-78
2022/12/19 10:13:25;;;;;;;58.83;25.15;;;;;;;;;;5022578;28;20465;-79
2022/12/19 10:16:03;;;;;;;59.47;25.25;;;;;;;;;;5020411;28;20030;-75
2022/12/19 10:18:41;;;;;;;54.33;25.38;;;;;;;;;;5017375;28;20483;-75
2022/12/19 10:21:24;;;;;;;52.65;25.38;;;;;;;;;;5016137;28;20360;-76
2022/12/19 10:23:53;;;;;;;48.38;25.15;;;;;;;;;;5016597;28;20117;-77
2022/12/19 10:26:20;;;;;;;45.15;24.52;;;;;;;;;;5017910;28;20038;-75
2022/12/19 10:29:04;;;;;;;61.60;30.77;;;;;;;;;;5019936;28;20038;-77
2022/12/19 10:31:37;;;;;;;52.28;25.90;;;;;;;;;;5021944;28;20025;-77
2022/12/19 10:34:23;;;;;;;48.80;25.48;;;;;;;;;;5016999;28;20037;-77
2022/12/19 10:36:55;;;;;;;55.63;24.67;;;;;;;;;;5024752;28;20010;-81
2022/12/19 10:39:33;;;;;;;47.45;24.92;;;;;;;;;;5018780;28;20025;-74
2022/12/19 10:42:04;;;;;;;65.15;25.45;;;;;;;;;;5015859;28;20105;-72
2022/12/19 10:44:31;;;;;;;50.50;23.83;;;;;;;;;;5016818;28;20025;-72
2022/12/19 10:46:57;;;;;;;50.88;24.70;;;;;;;;;;5016708;28;20080;-77
2022/12/19 10:49:25;;;;;;;42.15;23.42;;;;;;;;;;5015622;28;20434;-76
2022/12/19 10:51:53;;;;;;;46.88;24.60;;;;;;;;;;5017776;28;20398;-75
2022/12/19 10:54:19;;;;;;;50.00;25.20;;;;;;;;;;5019669;28;20087;-76
2022/12/19 10:56:45;;;;;;;48.75;24.63;;;;;;;;;;5017827;28;20502;-77
2022/12/19 10:59:18;;;;;;;52.53;25.63;;;;;;;;;;5025357;28;20030;-77
2022/12/19 11:01:45;;;;;;;54.15;26.63;;;;;;;;;;5027003;28;20037;-76
2022/12/19 11:04:18;;;;;;;52.13;26.75;;;;;;;;;;5016769;28;20045;-76
2022/12/19 11:06:52;;;;;;;50.17;24.92;;;;;;;;;;5016023;28;20124;-76
2022/12/19 11:09:19;;;;;;;48.97;24.70;;;;;;;;;;5017605;28;20029;-76
2022/12/19 11:11:46;;;;;;;49.45;25.33;;;;;;;;;;5016478;28;20435;-78
2022/12/19 11:14:20;;;;;;;48.35;25.05;;;;;;;;;;5019516;28;20036;-77
2022/12/19 11:16:46;;;;;;;51.28;25.67;;;;;;;;;;5026950;28;20665;-76
2022/12/19 11:19:20;;;;;;;53.00;26.83;;;;;;;;;;5029030;28;20036;-75
2022/12/19 11:21:46;;;;;;;48.83;24.50;;;;;;;;;;5017380;28;20479;-76
2022/12/19 11:24:18;;;;;;;49.08;25.52;;;;;;;;;;5020364;28;20269;-77
2022/12/19 11:26:48;;;;;;;53.10;26.70;;;;;;;;;;5020209;28;20312;-76
2022/12/19 11:29:27;;;;;;;50.88;25.48;;;;;;;;;;5017215;28;20133;-76
2022/12/19 11:31:55;;;;;;;54.60;28.30;;;;;;;;;;5016016;28;20034;-77
2022/12/19 11:34:22;;;;;;;48.92;24.95;;;;;;;;;;5017690;28;20033;-76
2022/12/19 11:36:57;;;;;;;48.53;25.10;;;;;;;;;;5017710;28;20037;-77
2022/12/19 11:39:42;;;;;;;51.53;25.50;;;;;;;;;;5018256;28;20382;-76
2022/12/19 11:42:23;;;;;;;47.72;24.92;;;;;;;;;;5017437;28;20022;-75
2022/12/19 11:44:49;;;;;;;45.53;24.85;;;;;;;;;;5017727;28;20043;-77
2022/12/19 11:47:26;;;;;;;47.95;25.52;;;;;;;;;;5016688;28;20029;-75
2022/12/19 11:49:55;;;;;;;45.88;24.17;;;;;;;;;;5016216;28;20053;-77
2022/12/19 11:52:40;;;;;;;46.28;24.58;;;;;;;;;;5017072;28;20049;-76
2022/12/19 11:55:06;;;;;;;;;;;;;;;;;;5017154;28;20447;-74
2022/12/19 11:57:32;;;;;;;48.03;24.73;;;;;;;;;;5015975;28;19910;-76
2022/12/19 11:59:58;;;;;;;45.67;25.02;;;;;;;;;;5016038;28;20491;-81
2022/12/19 12:02:51;;;;;;;49.03;24.90;;;;;;;;;;5029936;28;20081;-76
2022/12/19 12:05:37;;;;;;;46.92;24.02;;;;;;;;;;5017095;28;20030;-76
2022/12/19 12:08:19;;;;;;;50.28;25.83;;;;;;;;;;5019593;28;20037;-76
2022/12/19 12:11:01;;;;;;;49.38;24.58;;;;;;;;;;5016022;28;20482;-77
2022/12/19 12:13:36;;;;;;;48.22;24.33;;;;;;;;;;5015045;28;20082;-76
2022/12/19 12:16:02;;;;;;;;;;;;;;;;;;5027162;28;20434;-75
2022/12/19 12:18:39;;;;;;;43.65;23.60;;;;;;;;;;5044941;28;19928;-76
2022/12/19 12:21:20;;;;;;;43.85;23.25;;;;;;;;;;5018875;28;20030;-77
2022/12/19 12:24:02;;;;;;;43.28;22.58;;;;;;;;;;5020004;28;20030;-77
2022/12/19 12:26:36;;;;;;;44.63;22.42;;;;;;;;;;5017754;28;20403;-75
2022/12/19 12:29:03;;;;;;;41.40;21.92;;;;;;;;;;5019419;28;20233;-77
2022/12/19 12:31:38;;;;;;;40.50;21.75;;;;;;;;;;5016399;28;20018;-75
2022/12/19 12:34:04;;;;;;;42.67;22.13;;;;;;;;;;5016205;28;20116;-75
2022/12/19 12:36:49;;;;;;;43.83;21.92;;;;;;;;;;5015516;28;20058;-75
2022/12/19 12:39:29;;;;;;;42.75;22.70;;;;;;;;;;5018291;28;20033;-76
2022/12/19 12:42:04;;;;;;;40.13;21.15;;;;;;;;;;5028087;28;20049;-75
2022/12/19 12:44:40;;;;;;;44.90;22.55;;;;;;;;;;5031638;28;20021;-75
2022/12/19 12:47:05;;;;;;;38.92;20.05;;;;;;;;;;5031167;28;20018;-73
2022/12/19 12:49:31;;;;;;;38.78;21.90;;;;;;;;;;5023224;28;20041;-73
2022/12/19 12:51:58;;;;;;;40.58;22.58;;;;;;;;;;5018513;28;20080;-74
2022/12/19 12:54:29;;;;;;;41.47;21.70;;;;;;;;;;5019632;28;20041;-75
2022/12/19 12:56:55;;;;;;;38.70;21.02;;;;;;;;;;5019023;28;20030;-76
2022/12/19 12:59:22;;;;;;;39.38;21.48;;;;;;;;;;5018342;28;20494;-76
2022/12/19 13:01:50;;;;;;;36.83;21.95;;;;;;;;;;5019032;28;20076;-76
2022/12/19 13:04:16;;;;;;;38.42;22.25;;;;;;;;;;5019281;28;20444;-75
2022/12/19 13:06:59;;;;;;;45.50;23.92;;;;;;;;;;5017597;28;20026;-76
2022/12/19 13:09:30;;;;;;;47.20;24.35;;;;;;;;;;5016906;28;20029;-75
2022/12/19 13:14:46;;;;;;;40.10;22.70;;;;;;;;;;5018621;28;20487;-74
2022/12/19 13:17:30;;;;;;;41.63;22.13;;;;;;;;;;5018292;28;20026;-74
2022/12/19 13:20:14;;;;;;;37.20;22.08;;;;;;;;;;5022070;28;20033;-76
2022/12/19 13:22:42;;;;;;;38.33;21.50;;;;;;;;;;5019538;28;20050;-75
2022/12/19 13:25:26;;;;;;;45.22;23.20;;;;;;;;;;5019564;28;20022;-73
2022/12/19 13:28:01;;;;;;;48.45;23.83;;;;;;;;;;5018303;28;20069;-73
2022/12/19 13:30:28;;;;;;;39.72;22.50;;;;;;;;;;5018726;28;20030;-76
2022/12/19 13:32:54;;;;;;;39.38;22.95;;;;;;;;;;5019169;28;20028;-75
2022/12/19 13:35:19;;;;;;;40.83;23.13;;;;;;;;;;5016971;28;20443;-75
2022/12/19 13:38:02;;;;;;;42.95;23.25;;;;;;;;;;5016801;28;20521;-76
2022/12/19 13:40:33;;;;;;;39.15;22.85;;;;;;;;;;5016772;28;20034;-76
2022/12/19 13:46:01;;;;;;;47.90;25.75;;;;;;;;;;5006237;28;20038;-76
2022/12/19 13:48:26;;;;;;;41.95;24.60;;;;;;;;;;4998633;28;20455;-76
2022/12/19 13:50:54;;;;;;;47.17;24.00;;;;;;;;;;4987573;28;20117;-77
2022/12/19 13:53:22;;;;;;;43.80;24.15;;;;;;;;;;4988599;28;20097;-76
2022/12/19 13:55:48;;;;;;;44.83;25.27;;;;;;;;;;4993091;28;20094;-76
2022/12/19 13:58:21;;;;;;;44.25;24.90;;;;;;;;;;5008089;28;20030;-75
2022/12/19 14:00:47;;;;;;;43.67;23.70;;;;;;;;;;5005402;28;20023;-77
2022/12/19 14:03:16;;;;;;;49.05;26.05;;;;;;;;;;4995460;28;20507;-76
2022/12/19 14:05:42;;;;;;;46.80;25.45;;;;;;;;;;4997660;28;20057;-76
2022/12/19 14:08:09;;;;;;;49.47;26.83;;;;;;;;;;4997456;28;20455;-79
2022/12/19 14:10:38;;;;;;;47.00;26.20;;;;;;;;;;4988672;28;20097;-76
2022/12/19 14:15:51;;;;;;;48.15;25.25;;;;;;;;;;4998243;28;20168;-75
2022/12/19 14:18:22;;;;;;;48.42;27.05;;;;;;;;;;4999609;28;20053;-76
2022/12/19 14:20:49;;;;;;;45.72;26.10;;;;;;;;;;4999082;28;20468;-76
2022/12/19 14:23:15;;;;;;;51.75;26.48;;;;;;;;;;4999025;28;20023;-75
2022/12/19 14:25:52;;;;;;;47.42;26.48;;;;;;;;;;4990920;28;20030;-76
2022/12/19 14:28:24;;;;;;;46.40;26.50;;;;;;;;;;4982449;28;20113;-75
2022/12/19 14:30:53;;;;;;;50.47;26.25;;;;;;;;;;4997882;28;20030;-76
2022/12/19 14:33:27;;;;;;;53.42;27.67;;;;;;;;;;4999655;28;20034;-75
2022/12/19 14:35:54;;;;;;;51.53;27.70;;;;;;;;;;4979794;28;20050;-75
2022/12/19 14:38:22;;;;;;;48.70;26.92;;;;;;;;;;4977017;28;20082;-75
2022/12/19 14:40:48;;;;;;;55.28;27.92;;;;;;;;;;4977890;28;20488;-76
2022/12/19 14:43:37;;;;;;;53.92;27.52;;;;;;;;;;4988185;28;20492;-75